sensor_id;sensor_type;location;lat;lon;timestamp;pressure;altitude;pressure_sealevel;temperature
12061;BMP180;6091;51.432;6.880;2023-03-19T00:00:51;100387.00;;;24.10
12061;BMP180;6091;51.432;6.880;2023-03-19T00:03:18;100377.00;;;24.10
12061;BMP180;6091;51.432;6.880;2023-03-19T00:05:52;100375.00;;;24.10
12061;BMP180;6091;51.432;6.880;2023-03-19T00:08:20;100389.00;;;24.10
12061;BMP180;6091;51.432;6.880;2023-03-19T00:10:49;100386.00;;;24.10
12061;BMP180;6091;51.432;6.880;2023-03-19T00:13:17;100413.00;;;24.00
12061;BMP180;6091;51.432;6.880;2023-03-19T00:15:45;100407.00;;;24.00
12061;BMP180;6091;51.432;6.880;2023-03-19T00:18:13;100428.00;;;24.10
12061;BMP180;6091;51.432;6.880;2023-03-19T00:20:42;100423.00;;;24.00
12061;BMP180;6091;51.432;6.880;2023-03-19T00:23:09;100435.00;;;24.00
12061;BMP180;6091;51.432;6.880;2023-03-19T00:25:36;100431.00;;;24.00
12061;BMP180;6091;51.432;6.880;2023-03-19T00:28:03;100430.00;;;24.00
12061;BMP180;6091;51.432;6.880;2023-03-19T00:30:31;100428.00;;;24.00
12061;BMP180;6091;51.432;6.880;2023-03-19T00:33:01;100424.00;;;24.00
12061;BMP180;6091;51.432;6.880;2023-03-19T00:35:29;100418.00;;;24.00
12061;BMP180;6091;51.432;6.880;2023-03-19T00:37:56;100419.00;;;24.00
12061;BMP180;6091;51.432;6.880;2023-03-19T00:40:26;100403.00;;;24.00
12061;BMP180;6091;51.432;6.880;2023-03-19T00:42:54;100405.00;;;24.00
12061;BMP180;6091;51.432;6.880;2023-03-19T00:45:21;100406.00;;;24.00
12061;BMP180;6091;51.432;6.880;2023-03-19T00:47:49;100402.00;;;24.00
12061;BMP180;6091;51.432;6.880;2023-03-19T00:50:17;100407.00;;;24.00
12061;BMP180;6091;51.432;6.880;2023-03-19T00:52:45;100407.00;;;24.00
12061;BMP180;6091;51.432;6.880;2023-03-19T00:55:15;100416.00;;;24.00
12061;BMP180;6091;51.432;6.880;2023-03-19T00:57:42;100416.00;;;24.00
12061;BMP180;6091;51.432;6.880;2023-03-19T01:00:10;100423.00;;;24.00
12061;BMP180;6091;51.432;6.880;2023-03-19T01:02:38;100411.00;;;24.00
12061;BMP180;6091;51.432;6.880;2023-03-19T01:05:06;100417.00;;;24.00
12061;BMP180;6091;51.432;6.880;2023-03-19T01:07:34;100419.00;;;24.00
12061;BMP180;6091;51.432;6.880;2023-03-19T01:10:01;100419.00;;;24.00
12061;BMP180;6091;51.432;6.880;2023-03-19T01:12:28;100408.00;;;24.00
12061;BMP180;6091;51.432;6.880;2023-03-19T01:14:56;100408.00;;;24.00
12061;BMP180;6091;51.432;6.880;2023-03-19T01:17:23;100402.00;;;24.00
12061;BMP180;6091;51.432;6.880;2023-03-19T01:19:51;100392.00;;;24.00
12061;BMP180;6091;51.432;6.880;2023-03-19T01:22:19;100404.00;;;24.00
12061;BMP180;6091;51.432;6.880;2023-03-19T01:24:47;100395.00;;;23.90
12061;BMP180;6091;51.432;6.880;2023-03-19T01:27:14;100408.00;;;23.90
12061;BMP180;6091;51.432;6.880;2023-03-19T01:29:42;100407.00;;;23.90
12061;BMP180;6091;51.432;6.880;2023-03-19T01:32:09;100405.00;;;23.90
12061;BMP180;6091;51.432;6.880;2023-03-19T01:34:37;100406.00;;;23.90
12061;BMP180;6091;51.432;6.880;2023-03-19T01:37:04;100390.00;;;23.90
12061;BMP180;6091;51.432;6.880;2023-03-19T01:39:32;100388.00;;;23.90
12061;BMP180;6091;51.432;6.880;2023-03-19T01:42:02;100393.00;;;23.90
12061;BMP180;6091;51.432;6.880;2023-03-19T01:44:33;100383.00;;;23.90
12061;BMP180;6091;51.432;6.880;2023-03-19T01:47:05;100391.00;;;23.90
12061;BMP180;6091;51.432;6.880;2023-03-19T01:49:34;100378.00;;;23.90
12061;BMP180;6091;51.432;6.880;2023-03-19T01:52:03;100379.00;;;23.90
12061;BMP180;6091;51.432;6.880;2023-03-19T01:54:33;100379.00;;;23.90
12061;BMP180;6091;51.432;6.880;2023-03-19T01:57:08;100392.00;;;23.90
12061;BMP180;6091;51.432;6.880;2023-03-19T01:59:44;100380.00;;;23.90
12061;BMP180;6091;51.432;6.880;2023-03-19T02:02:30;100387.00;;;23.90
12061;BMP180;6091;51.432;6.880;2023-03-19T02:05:05;100374.00;;;23.80
12061;BMP180;6091;51.432;6.880;2023-03-19T02:07:36;100372.00;;;23.80
12061;BMP180;6091;51.432;6.880;2023-03-19T02:10:10;100374.00;;;23.80
12061;BMP180;6091;51.432;6.880;2023-03-19T02:12:38;100381.00;;;23.80
12061;BMP180;6091;51.432;6.880;2023-03-19T02:15:07;100380.00;;;23.80
12061;BMP180;6091;51.432;6.880;2023-03-19T02:17:34;100373.00;;;23.80
12061;BMP180;6091;51.432;6.880;2023-03-19T02:23:20;100384.00;;;23.80
12061;BMP180;6091;51.432;6.880;2023-03-19T02:26:11;100378.00;;;23.80
12061;BMP180;6091;51.432;6.880;2023-03-19T02:28:44;100386.00;;;23.80
12061;BMP180;6091;51.432;6.880;2023-03-19T02:31:14;100376.00;;;23.80
12061;BMP180;6091;51.432;6.880;2023-03-19T02:33:42;100383.00;;;23.80
12061;BMP180;6091;51.432;6.880;2023-03-19T02:36:18;100374.00;;;23.80
12061;BMP180;6091;51.432;6.880;2023-03-19T02:38:47;100381.00;;;23.80
12061;BMP180;6091;51.432;6.880;2023-03-19T02:41:14;100377.00;;;23.80
12061;BMP180;6091;51.432;6.880;2023-03-19T02:43:42;100374.00;;;23.80
12061;BMP180;6091;51.432;6.880;2023-03-19T02:46:12;100369.00;;;23.80
12061;BMP180;6091;51.432;6.880;2023-03-19T02:48:39;100368.00;;;23.80
12061;BMP180;6091;51.432;6.880;2023-03-19T02:51:10;100368.00;;;23.80
12061;BMP180;6091;51.432;6.880;2023-03-19T02:53:37;100367.00;;;23.80
12061;BMP180;6091;51.432;6.880;2023-03-19T02:56:05;100373.00;;;23.80
12061;BMP180;6091;51.432;6.880;2023-03-19T02:58:34;100368.00;;;23.80
12061;BMP180;6091;51.432;6.880;2023-03-19T03:01:04;100374.00;;;23.80
12061;BMP180;6091;51.432;6.880;2023-03-19T03:03:34;100364.00;;;23.80
12061;BMP180;6091;51.432;6.880;2023-03-19T03:06:02;100370.00;;;23.80
12061;BMP180;6091;51.432;6.880;2023-03-19T03:08:29;100372.00;;;23.80
12061;BMP180;6091;51.432;6.880;2023-03-19T03:11:02;100366.00;;;23.80
12061;BMP180;6091;51.432;6.880;2023-03-19T03:13:31;100369.00;;;23.80
12061;BMP180;6091;51.432;6.880;2023-03-19T03:16:02;100375.00;;;23.70
12061;BMP180;6091;51.432;6.880;2023-03-19T03:18:29;100370.00;;;23.70
12061;BMP180;6091;51.432;6.880;2023-03-19T03:20:58;100380.00;;;23.70
12061;BMP180;6091;51.432;6.880;2023-03-19T03:23:27;100382.00;;;23.70
12061;BMP180;6091;51.432;6.880;2023-03-19T03:25:54;100378.00;;;23.70
12061;BMP180;6091;51.432;6.880;2023-03-19T03:28:25;100387.00;;;23.70
12061;BMP180;6091;51.432;6.880;2023-03-19T03:31:00;100386.00;;;23.70
12061;BMP180;6091;51.432;6.880;2023-03-19T03:33:29;100390.00;;;23.70
12061;BMP180;6091;51.432;6.880;2023-03-19T03:35:56;100396.00;;;23.70
12061;BMP180;6091;51.432;6.880;2023-03-19T03:38:23;100390.00;;;23.70
12061;BMP180;6091;51.432;6.880;2023-03-19T03:40:53;100385.00;;;23.70
12061;BMP180;6091;51.432;6.880;2023-03-19T03:43:21;100385.00;;;23.70
12061;BMP180;6091;51.432;6.880;2023-03-19T03:45:48;100383.00;;;23.70
12061;BMP180;6091;51.432;6.880;2023-03-19T03:48:16;100388.00;;;23.70
12061;BMP180;6091;51.432;6.880;2023-03-19T03:50:48;100386.00;;;23.70
12061;BMP180;6091;51.432;6.880;2023-03-19T03:53:15;100388.00;;;23.70
12061;BMP180;6091;51.432;6.880;2023-03-19T03:55:43;100397.00;;;23.70
12061;BMP180;6091;51.432;6.880;2023-03-19T03:58:10;100397.00;;;23.70
12061;BMP180;6091;51.432;6.880;2023-03-19T04:00:39;100400.00;;;23.70
12061;BMP180;6091;51.432;6.880;2023-03-19T04:03:06;100402.00;;;23.70
12061;BMP180;6091;51.432;6.880;2023-03-19T04:05:33;100410.00;;;23.60
12061;BMP180;6091;51.432;6.880;2023-03-19T04:08:01;100410.00;;;23.70
12061;BMP180;6091;51.432;6.880;2023-03-19T04:10:29;100413.00;;;23.70
12061;BMP180;6091;51.432;6.880;2023-03-19T04:12:57;100413.00;;;23.70
12061;BMP180;6091;51.432;6.880;2023-03-19T04:15:25;100415.00;;;23.70
12061;BMP180;6091;51.432;6.880;2023-03-19T04:17:52;100408.00;;;23.70
12061;BMP180;6091;51.432;6.880;2023-03-19T04:20:19;100407.00;;;23.70
12061;BMP180;6091;51.432;6.880;2023-03-19T04:22:51;100397.00;;;23.70
12061;BMP180;6091;51.432;6.880;2023-03-19T04:25:18;100419.00;;;23.70
12061;BMP180;6091;51.432;6.880;2023-03-19T04:27:48;100419.00;;;23.70
12061;BMP180;6091;51.432;6.880;2023-03-19T04:30:15;100424.00;;;23.70
12061;BMP180;6091;51.432;6.880;2023-03-19T04:32:43;100428.00;;;23.70
12061;BMP180;6091;51.432;6.880;2023-03-19T04:35:12;100421.00;;;23.70
12061;BMP180;6091;51.432;6.880;2023-03-19T04:37:40;100430.00;;;23.70
12061;BMP180;6091;51.432;6.880;2023-03-19T04:40:10;100427.00;;;23.40
12061;BMP180;6091;51.432;6.880;2023-03-19T04:42:41;100437.00;;;23.70
12061;BMP180;6091;51.432;6.880;2023-03-19T04:45:10;100437.00;;;23.60
12061;BMP180;6091;51.432;6.880;2023-03-19T04:47:38;100436.00;;;23.60
12061;BMP180;6091;51.432;6.880;2023-03-19T04:50:09;100436.00;;;23.60
12061;BMP180;6091;51.432;6.880;2023-03-19T04:52:39;100431.00;;;23.60
12061;BMP180;6091;51.432;6.880;2023-03-19T04:55:08;100430.00;;;23.60
12061;BMP180;6091;51.432;6.880;2023-03-19T04:57:34;100441.00;;;23.60
12061;BMP180;6091;51.432;6.880;2023-03-19T05:00:03;100440.00;;;23.60
12061;BMP180;6091;51.432;6.880;2023-03-19T05:02:30;100433.00;;;23.60
12061;BMP180;6091;51.432;6.880;2023-03-19T05:04:57;100443.00;;;23.60
12061;BMP180;6091;51.432;6.880;2023-03-19T05:07:24;100435.00;;;23.60
12061;BMP180;6091;51.432;6.880;2023-03-19T05:09:52;100436.00;;;23.60
12061;BMP180;6091;51.432;6.880;2023-03-19T05:12:20;100438.00;;;23.60
12061;BMP180;6091;51.432;6.880;2023-03-19T05:14:47;100447.00;;;23.60
12061;BMP180;6091;51.432;6.880;2023-03-19T05:17:14;100448.00;;;23.60
12061;BMP180;6091;51.432;6.880;2023-03-19T05:19:41;100442.00;;;23.60
12061;BMP180;6091;51.432;6.880;2023-03-19T05:22:09;100454.00;;;23.60
12061;BMP180;6091;51.432;6.880;2023-03-19T05:24:36;100459.00;;;23.60
12061;BMP180;6091;51.432;6.880;2023-03-19T05:27:04;100456.00;;;23.60
12061;BMP180;6091;51.432;6.880;2023-03-19T05:29:31;100450.00;;;23.60
12061;BMP180;6091;51.432;6.880;2023-03-19T05:31:58;100454.00;;;23.60
12061;BMP180;6091;51.432;6.880;2023-03-19T05:34:35;100451.00;;;23.60
12061;BMP180;6091;51.432;6.880;2023-03-19T05:37:02;100462.00;;;23.60
12061;BMP180;6091;51.432;6.880;2023-03-19T05:39:30;100455.00;;;23.60
12061;BMP180;6091;51.432;6.880;2023-03-19T05:41:57;100459.00;;;23.60
12061;BMP180;6091;51.432;6.880;2023-03-19T05:44:28;100449.00;;;23.60
12061;BMP180;6091;51.432;6.880;2023-03-19T05:46:55;100458.00;;;23.60
12061;BMP180;6091;51.432;6.880;2023-03-19T05:49:23;100463.00;;;23.60
12061;BMP180;6091;51.432;6.880;2023-03-19T05:51:52;100470.00;;;23.60
12061;BMP180;6091;51.432;6.880;2023-03-19T05:54:23;100470.00;;;23.60
12061;BMP180;6091;51.432;6.880;2023-03-19T05:56:50;100475.00;;;23.60
12061;BMP180;6091;51.432;6.880;2023-03-19T05:59:18;100471.00;;;23.60
12061;BMP180;6091;51.432;6.880;2023-03-19T06:01:46;100481.00;;;23.60
12061;BMP180;6091;51.432;6.880;2023-03-19T06:04:14;100481.00;;;23.60
12061;BMP180;6091;51.432;6.880;2023-03-19T06:06:43;100482.00;;;23.60
12061;BMP180;6091;51.432;6.880;2023-03-19T06:09:10;100471.00;;;23.60
12061;BMP180;6091;51.432;6.880;2023-03-19T06:11:37;100481.00;;;23.60
12061;BMP180;6091;51.432;6.880;2023-03-19T06:14:06;100480.00;;;23.60
12061;BMP180;6091;51.432;6.880;2023-03-19T06:16:34;100488.00;;;23.60
12061;BMP180;6091;51.432;6.880;2023-03-19T06:19:02;100476.00;;;23.60
12061;BMP180;6091;51.432;6.880;2023-03-19T06:21:35;100497.00;;;23.60
12061;BMP180;6091;51.432;6.880;2023-03-19T06:24:06;100463.00;;;23.60
12061;BMP180;6091;51.432;6.880;2023-03-19T06:26:44;100492.00;;;23.60
12061;BMP180;6091;51.432;6.880;2023-03-19T06:29:48;100497.00;;;23.60
12061;BMP180;6091;51.432;6.880;2023-03-19T06:32:19;100490.00;;;23.60
12061;BMP180;6091;51.432;6.880;2023-03-19T06:34:46;100496.00;;;23.60
12061;BMP180;6091;51.432;6.880;2023-03-19T06:37:13;100501.00;;;23.60
12061;BMP180;6091;51.432;6.880;2023-03-19T06:39:41;100496.00;;;23.60
12061;BMP180;6091;51.432;6.880;2023-03-19T06:42:09;100503.00;;;23.60
12061;BMP180;6091;51.432;6.880;2023-03-19T06:44:37;100505.00;;;23.60
12061;BMP180;6091;51.432;6.880;2023-03-19T06:47:04;100506.00;;;23.60
12061;BMP180;6091;51.432;6.880;2023-03-19T06:49:33;100513.00;;;23.60
12061;BMP180;6091;51.432;6.880;2023-03-19T06:52:00;100511.00;;;23.60
12061;BMP180;6091;51.432;6.880;2023-03-19T06:54:27;100514.00;;;23.60
12061;BMP180;6091;51.432;6.880;2023-03-19T06:56:58;100514.00;;;23.60
12061;BMP180;6091;51.432;6.880;2023-03-19T06:59:27;100516.00;;;23.60
12061;BMP180;6091;51.432;6.880;2023-03-19T07:01:55;100521.00;;;23.60
12061;BMP180;6091;51.432;6.880;2023-03-19T07:04:23;100519.00;;;23.60
12061;BMP180;6091;51.432;6.880;2023-03-19T07:06:51;100520.00;;;23.60
12061;BMP180;6091;51.432;6.880;2023-03-19T07:09:18;100527.00;;;23.60
12061;BMP180;6091;51.432;6.880;2023-03-19T07:11:46;100524.00;;;23.60
12061;BMP180;6091;51.432;6.880;2023-03-19T07:14:16;100526.00;;;23.60
12061;BMP180;6091;51.432;6.880;2023-03-19T07:16:43;100539.00;;;23.60
12061;BMP180;6091;51.432;6.880;2023-03-19T07:19:10;100523.00;;;23.60
12061;BMP180;6091;51.432;6.880;2023-03-19T07:21:40;100537.00;;;23.60
12061;BMP180;6091;51.432;6.880;2023-03-19T07:24:10;100542.00;;;23.60
12061;BMP180;6091;51.432;6.880;2023-03-19T07:26:38;100540.00;;;23.60
12061;BMP180;6091;51.432;6.880;2023-03-19T07:29:05;100542.00;;;23.60
12061;BMP180;6091;51.432;6.880;2023-03-19T07:31:33;100545.00;;;23.60
12061;BMP180;6091;51.432;6.880;2023-03-19T07:34:00;100552.00;;;23.60
12061;BMP180;6091;51.432;6.880;2023-03-19T07:36:28;100549.00;;;23.60
12061;BMP180;6091;51.432;6.880;2023-03-19T07:38:55;100553.00;;;23.60
12061;BMP180;6091;51.432;6.880;2023-03-19T07:41:23;100550.00;;;23.70
12061;BMP180;6091;51.432;6.880;2023-03-19T07:43:50;100549.00;;;23.70
12061;BMP180;6091;51.432;6.880;2023-03-19T07:46:17;100552.00;;;23.70
12061;BMP180;6091;51.432;6.880;2023-03-19T07:48:48;100558.00;;;23.70
12061;BMP180;6091;51.432;6.880;2023-03-19T07:51:15;100556.00;;;23.70
12061;BMP180;6091;51.432;6.880;2023-03-19T07:53:42;100555.00;;;23.70
12061;BMP180;6091;51.432;6.880;2023-03-19T07:56:12;100561.00;;;23.70
12061;BMP180;6091;51.432;6.880;2023-03-19T07:58:39;100565.00;;;23.70
12061;BMP180;6091;51.432;6.880;2023-03-19T08:01:07;100569.00;;;23.70
12061;BMP180;6091;51.432;6.880;2023-03-19T08:03:38;100559.00;;;23.70
12061;BMP180;6091;51.432;6.880;2023-03-19T08:06:05;100569.00;;;23.70
12061;BMP180;6091;51.432;6.880;2023-03-19T08:08:33;100569.00;;;23.70
12061;BMP180;6091;51.432;6.880;2023-03-19T08:11:02;100568.00;;;23.80
12061;BMP180;6091;51.432;6.880;2023-03-19T08:13:32;100562.00;;;23.80
12061;BMP180;6091;51.432;6.880;2023-03-19T08:15:59;100569.00;;;23.70
12061;BMP180;6091;51.432;6.880;2023-03-19T08:18:27;100570.00;;;23.80
12061;BMP180;6091;51.432;6.880;2023-03-19T08:20:54;100578.00;;;23.80
12061;BMP180;6091;51.432;6.880;2023-03-19T08:23:22;100578.00;;;23.80
12061;BMP180;6091;51.432;6.880;2023-03-19T08:25:53;100574.00;;;23.70
12061;BMP180;6091;51.432;6.880;2023-03-19T08:28:22;100586.00;;;23.80
12061;BMP180;6091;51.432;6.880;2023-03-19T08:30:50;100590.00;;;23.80
12061;BMP180;6091;51.432;6.880;2023-03-19T08:33:19;100595.00;;;23.80
12061;BMP180;6091;51.432;6.880;2023-03-19T08:35:52;100596.00;;;23.80
12061;BMP180;6091;51.432;6.880;2023-03-19T08:38:19;100592.00;;;23.80
12061;BMP180;6091;51.432;6.880;2023-03-19T08:40:47;100590.00;;;23.80
12061;BMP180;6091;51.432;6.880;2023-03-19T08:43:15;100596.00;;;23.90
12061;BMP180;6091;51.432;6.880;2023-03-19T08:45:42;100597.00;;;23.90
12061;BMP180;6091;51.432;6.880;2023-03-19T08:48:09;100601.00;;;23.90
12061;BMP180;6091;51.432;6.880;2023-03-19T08:50:39;100600.00;;;23.90
12061;BMP180;6091;51.432;6.880;2023-03-19T08:53:06;100613.00;;;23.90
12061;BMP180;6091;51.432;6.880;2023-03-19T08:55:33;100606.00;;;24.00
12061;BMP180;6091;51.432;6.880;2023-03-19T08:58:00;100609.00;;;24.00
12061;BMP180;6091;51.432;6.880;2023-03-19T09:00:27;100602.00;;;24.00
12061;BMP180;6091;51.432;6.880;2023-03-19T09:02:57;100600.00;;;24.00
12061;BMP180;6091;51.432;6.880;2023-03-19T09:05:25;100602.00;;;24.10
12061;BMP180;6091;51.432;6.880;2023-03-19T09:07:55;100607.00;;;24.10
12061;BMP180;6091;51.432;6.880;2023-03-19T09:10:22;100609.00;;;24.10
12061;BMP180;6091;51.432;6.880;2023-03-19T09:12:52;100612.00;;;24.20
12061;BMP180;6091;51.432;6.880;2023-03-19T09:15:20;100605.00;;;24.20
12061;BMP180;6091;51.432;6.880;2023-03-19T09:17:47;100603.00;;;24.20
12061;BMP180;6091;51.432;6.880;2023-03-19T09:20:16;100605.00;;;24.20
12061;BMP180;6091;51.432;6.880;2023-03-19T09:22:44;100601.00;;;24.20
12061;BMP180;6091;51.432;6.880;2023-03-19T09:25:13;100605.00;;;24.30
12061;BMP180;6091;51.432;6.880;2023-03-19T09:27:44;100599.00;;;24.30
12061;BMP180;6091;51.432;6.880;2023-03-19T09:30:11;100609.00;;;24.30
12061;BMP180;6091;51.432;6.880;2023-03-19T09:32:42;100601.00;;;24.30
12061;BMP180;6091;51.432;6.880;2023-03-19T09:35:09;100611.00;;;24.40
12061;BMP180;6091;51.432;6.880;2023-03-19T09:37:37;100617.00;;;24.40
12061;BMP180;6091;51.432;6.880;2023-03-19T09:40:05;100617.00;;;24.40
12061;BMP180;6091;51.432;6.880;2023-03-19T09:43:08;100623.00;;;24.40
12061;BMP180;6091;51.432;6.880;2023-03-19T09:45:49;100623.00;;;24.40
12061;BMP180;6091;51.432;6.880;2023-03-19T09:48:46;100627.00;;;24.40
12061;BMP180;6091;51.432;6.880;2023-03-19T09:51:29;100639.00;;;24.40
12061;BMP180;6091;51.432;6.880;2023-03-19T09:57:03;100639.00;;;24.40
12061;BMP180;6091;51.432;6.880;2023-03-19T09:59:31;100643.00;;;24.40
12061;BMP180;6091;51.432;6.880;2023-03-19T10:05:14;100643.00;;;24.40
12061;BMP180;6091;51.432;6.880;2023-03-19T10:14:00;100635.00;;;24.30
12061;BMP180;6091;51.432;6.880;2023-03-19T10:16:27;100641.00;;;24.30
12061;BMP180;6091;51.432;6.880;2023-03-19T10:19:01;100650.00;;;24.30
12061;BMP180;6091;51.432;6.880;2023-03-19T10:24:33;100649.00;;;24.30
12061;BMP180;6091;51.432;6.880;2023-03-19T10:27:12;100646.00;;;24.30
12061;BMP180;6091;51.432;6.880;2023-03-19T10:29:40;100652.00;;;24.30
12061;BMP180;6091;51.432;6.880;2023-03-19T10:32:16;100654.00;;;24.30
12061;BMP180;6091;51.432;6.880;2023-03-19T10:34:51;100662.00;;;24.20
12061;BMP180;6091;51.432;6.880;2023-03-19T10:37:27;100659.00;;;24.20
12061;BMP180;6091;51.432;6.880;2023-03-19T10:39:59;100667.00;;;24.20
12061;BMP180;6091;51.432;6.880;2023-03-19T10:45:39;100668.00;;;24.20
12061;BMP180;6091;51.432;6.880;2023-03-19T10:48:18;100673.00;;;24.20
12061;BMP180;6091;51.432;6.880;2023-03-19T10:50:59;100671.00;;;24.20
12061;BMP180;6091;51.432;6.880;2023-03-19T10:53:42;100667.00;;;24.20
12061;BMP180;6091;51.432;6.880;2023-03-19T10:56:23;100675.00;;;24.20
12061;BMP180;6091;51.432;6.880;2023-03-19T10:59:04;100675.00;;;24.10
12061;BMP180;6091;51.432;6.880;2023-03-19T11:01:40;100671.00;;;24.10
12061;BMP180;6091;51.432;6.880;2023-03-19T11:04:22;100677.00;;;24.10
12061;BMP180;6091;51.432;6.880;2023-03-19T11:06:55;100680.00;;;24.10
12061;BMP180;6091;51.432;6.880;2023-03-19T11:09:35;100686.00;;;24.10
12061;BMP180;6091;51.432;6.880;2023-03-19T11:12:30;100686.00;;;24.10
12061;BMP180;6091;51.432;6.880;2023-03-19T11:15:25;100686.00;;;24.10
12061;BMP180;6091;51.432;6.880;2023-03-19T11:18:19;100686.00;;;24.00
12061;BMP180;6091;51.432;6.880;2023-03-19T11:21:05;100692.00;;;24.00
12061;BMP180;6091;51.432;6.880;2023-03-19T11:23:41;100690.00;;;24.00
12061;BMP180;6091;51.432;6.880;2023-03-19T11:26:18;100686.00;;;24.00
12061;BMP180;6091;51.432;6.880;2023-03-19T11:28:50;100661.00;;;24.00
12061;BMP180;6091;51.432;6.880;2023-03-19T11:35:07;100675.00;;;24.10
12061;BMP180;6091;51.432;6.880;2023-03-19T11:37:57;100669.00;;;24.20
12061;BMP180;6091;51.432;6.880;2023-03-19T11:40:48;100677.00;;;24.20
12061;BMP180;6091;51.432;6.880;2023-03-19T11:43:52;100667.00;;;24.40
12061;BMP180;6091;51.432;6.880;2023-03-19T11:46:56;100668.00;;;24.60
12061;BMP180;6091;51.432;6.880;2023-03-19T11:49:46;100675.00;;;24.70
12061;BMP180;6091;51.432;6.880;2023-03-19T11:52:47;100664.00;;;24.90
12061;BMP180;6091;51.432;6.880;2023-03-19T12:05:30;100667.00;;;25.10
12061;BMP180;6091;51.432;6.880;2023-03-19T12:17:39;100668.00;;;25.30
12061;BMP180;6091;51.432;6.880;2023-03-19T12:20:55;100663.00;;;25.40
12061;BMP180;6091;51.432;6.880;2023-03-19T12:23:58;100658.00;;;25.40
12061;BMP180;6091;51.432;6.880;2023-03-19T12:26:52;100668.00;;;25.50
12061;BMP180;6091;51.432;6.880;2023-03-19T12:29:41;100676.00;;;25.80
12061;BMP180;6091;51.432;6.880;2023-03-19T12:35:06;100678.00;;;26.10
12061;BMP180;6091;51.432;6.880;2023-03-19T12:37:49;100675.00;;;26.30
12061;BMP180;6091;51.432;6.880;2023-03-19T12:40:42;100680.00;;;26.40
12061;BMP180;6091;51.432;6.880;2023-03-19T12:43:34;100687.00;;;26.50
12061;BMP180;6091;51.432;6.880;2023-03-19T12:46:20;100678.00;;;26.60
12061;BMP180;6091;51.432;6.880;2023-03-19T12:49:09;100685.00;;;26.70
12061;BMP180;6091;51.432;6.880;2023-03-19T12:51:48;100678.00;;;26.70
12061;BMP180;6091;51.432;6.880;2023-03-19T12:54:35;100686.00;;;26.80
12061;BMP180;6091;51.432;6.880;2023-03-19T13:01:05;100682.00;;;27.20
12061;BMP180;6091;51.432;6.880;2023-03-19T13:04:02;100689.00;;;27.10
12061;BMP180;6091;51.432;6.880;2023-03-19T13:12:21;100686.00;;;27.20
12061;BMP180;6091;51.432;6.880;2023-03-19T13:15:09;100693.00;;;27.20
12061;BMP180;6091;51.432;6.880;2023-03-19T13:18:38;100676.00;;;27.10
12061;BMP180;6091;51.432;6.880;2023-03-19T13:21:36;100679.00;;;26.90
12061;BMP180;6091;51.432;6.880;2023-03-19T13:24:29;100681.00;;;27.40
12061;BMP180;6091;51.432;6.880;2023-03-19T13:26:59;100683.00;;;27.20
12061;BMP180;6091;51.432;6.880;2023-03-19T13:29:29;100675.00;;;27.20
12061;BMP180;6091;51.432;6.880;2023-03-19T13:32:03;100674.00;;;27.20
12061;BMP180;6091;51.432;6.880;2023-03-19T13:34:35;100679.00;;;27.30
12061;BMP180;6091;51.432;6.880;2023-03-19T13:37:17;100684.00;;;27.40
12061;BMP180;6091;51.432;6.880;2023-03-19T13:39:47;100677.00;;;27.40
12061;BMP180;6091;51.432;6.880;2023-03-19T13:42:36;100669.00;;;27.40
12061;BMP180;6091;51.432;6.880;2023-03-19T13:45:33;100671.00;;;27.40
12061;BMP180;6091;51.432;6.880;2023-03-19T13:51:02;100665.00;;;27.40
12061;BMP180;6091;51.432;6.880;2023-03-19T13:56:28;100662.00;;;27.40
12061;BMP180;6091;51.432;6.880;2023-03-19T13:59:34;100667.00;;;27.50
12061;BMP180;6091;51.432;6.880;2023-03-19T14:05:17;100666.00;;;27.50
12061;BMP180;6091;51.432;6.880;2023-03-19T14:07:54;100665.00;;;27.60
12061;BMP180;6091;51.432;6.880;2023-03-19T14:10:31;100664.00;;;27.60
12061;BMP180;6091;51.432;6.880;2023-03-19T14:13:37;100668.00;;;27.60
12061;BMP180;6091;51.432;6.880;2023-03-19T14:19:19;100667.00;;;27.50
12061;BMP180;6091;51.432;6.880;2023-03-19T14:24:28;100674.00;;;27.40
12061;BMP180;6091;51.432;6.880;2023-03-19T14:27:35;100669.00;;;27.30
12061;BMP180;6091;51.432;6.880;2023-03-19T14:30:14;100665.00;;;27.20
12061;BMP180;6091;51.432;6.880;2023-03-19T14:32:44;100666.00;;;27.10
12061;BMP180;6091;51.432;6.880;2023-03-19T14:35:17;100667.00;;;27.10
12061;BMP180;6091;51.432;6.880;2023-03-19T14:37:50;100660.00;;;26.90
12061;BMP180;6091;51.432;6.880;2023-03-19T14:40:31;100663.00;;;26.90
12061;BMP180;6091;51.432;6.880;2023-03-19T14:46:02;100665.00;;;26.70
12061;BMP180;6091;51.432;6.880;2023-03-19T14:55:10;100669.00;;;26.40
12061;BMP180;6091;51.432;6.880;2023-03-19T14:57:38;100670.00;;;26.30
12061;BMP180;6091;51.432;6.880;2023-03-19T15:00:16;100670.00;;;26.30
12061;BMP180;6091;51.432;6.880;2023-03-19T15:02:50;100672.00;;;26.20
12061;BMP180;6091;51.432;6.880;2023-03-19T15:05:22;100675.00;;;26.10
12061;BMP180;6091;51.432;6.880;2023-03-19T15:07:56;100674.00;;;26.10
12061;BMP180;6091;51.432;6.880;2023-03-19T15:10:33;100672.00;;;26.10
12061;BMP180;6091;51.432;6.880;2023-03-19T15:18:50;100675.00;;;25.80
12061;BMP180;6091;51.432;6.880;2023-03-19T15:21:19;100686.00;;;25.80
12061;BMP180;6091;51.432;6.880;2023-03-19T15:23:47;100675.00;;;25.70
12061;BMP180;6091;51.432;6.880;2023-03-19T15:26:15;100676.00;;;25.70
12061;BMP180;6091;51.432;6.880;2023-03-19T15:28:57;100672.00;;;25.60
12061;BMP180;6091;51.432;6.880;2023-03-19T15:31:48;100678.00;;;25.60
12061;BMP180;6091;51.432;6.880;2023-03-19T15:34:30;100671.00;;;25.50
12061;BMP180;6091;51.432;6.880;2023-03-19T15:37:08;100659.00;;;25.50
12061;BMP180;6091;51.432;6.880;2023-03-19T15:39:49;100666.00;;;25.50
12061;BMP180;6091;51.432;6.880;2023-03-19T15:42:21;100668.00;;;25.50
12061;BMP180;6091;51.432;6.880;2023-03-19T15:45:10;100665.00;;;25.40
12061;BMP180;6091;51.432;6.880;2023-03-19T15:48:16;100675.00;;;25.30
12061;BMP180;6091;51.432;6.880;2023-03-19T15:50:52;100678.00;;;25.40
12061;BMP180;6091;51.432;6.880;2023-03-19T15:53:26;100680.00;;;25.40
12061;BMP180;6091;51.432;6.880;2023-03-19T15:56:01;100684.00;;;25.30
12061;BMP180;6091;51.432;6.880;2023-03-19T15:58:31;100689.00;;;25.30
12061;BMP180;6091;51.432;6.880;2023-03-19T16:01:07;100690.00;;;25.30
12061;BMP180;6091;51.432;6.880;2023-03-19T16:03:40;100695.00;;;25.30
12061;BMP180;6091;51.432;6.880;2023-03-19T16:06:29;100698.00;;;25.20
12061;BMP180;6091;51.432;6.880;2023-03-19T16:09:32;100696.00;;;25.20